KTPA

Tampa International Airport

Airport
ICAO code
KTPA
Summary
ICAO Region
NAM
ICAO Territory
Location

Tampa, Florida,

Coordinates
27° 58' 37" N , 82° 32' 0" W
KCC
Cfa
Metar
Observation
KTPA 110853Z VRB03KT 10SM FEW030 28/24 A3010 RMK AO2 SLP193 T02830239 56008 $
Station
Tampa, Tampa International Airport
Date/Time
2022-08-11 08:53:00
Wind speed
03 kts
Lowest cloud amount
few clouds
Temperature
28.3°C
Dew point
23.9°C
Humidity
77%
Weather condition
n/a

Description

International airport 6 nm west of Tampa, Florida, USA.

Climatology

Humid “subtropical” climate (Köppen climate classification Cfa) - characterized by hot, humid summers and cool winters. Significant amounts of precipitation occur in all seasons in most areas.

Runways

Designator Length Width Surface Rops
9/27 2133 46 PEM Yes/Yes
18L/36R 2530 46 PEM Yes/Yes
18R/36L 3353 46 CON Yes/Yes

Airport map

Aerial View

SKYbrary Partners:

Safety knowledge contributed by: